Weather at Mario's Flying Pizza Airport

Public forecast

Using degrees Fahrenheit for public forecast. Weather courtesy of forecast.io.

Closest aviation weather report (METAR) to Mario's Flying Pizza Airport

Closest report is Eagle Lake Airport, 9.0 nm (16.6 km) S. Retrieved 2020/09/27 04:35 UTC (0 seconds ago):

KELA 270435Z AUTO 15005KT 10SM CLR 24/23 A2986 RMK AO2 T02400230

Closest aviation forecast (TAF) to Mario's Flying Pizza Airport

Closest forecast is Sugar Land Regional Airport, 34.0 nm (63.0 km) ESE. Retrieved 2020-09-27 00:30 UTC (4 hours ago):

TAF KSGR 262327Z 2700/2724 18005KT P6SM FEW060 FM270900 17003KT 6SM BR SCT015 BKN025 FM271500 18008KT P6SM FEW015 SCT030 FM271700 18012KT P6SM SCT250